createdAt,value
2023-03-26T00:02:35.547Z,8.91
2023-03-26T00:05:21.780Z,8.96
2023-03-26T00:08:08.904Z,8.97
2023-03-26T00:10:54.009Z,8.96
2023-03-26T00:13:40.638Z,8.95
2023-03-26T00:16:28.893Z,8.93
2023-03-26T00:19:14.085Z,8.88
2023-03-26T00:21:59.372Z,8.94
2023-03-26T00:24:47.430Z,8.93
2023-03-26T00:27:32.406Z,8.82
2023-03-26T00:30:17.631Z,8.93
2023-03-26T00:33:03.047Z,8.94
2023-03-26T00:35:54.138Z,8.90
2023-03-26T00:38:39.572Z,8.93
2023-03-26T00:41:26.946Z,8.93
2023-03-26T00:44:12.141Z,8.93
2023-03-26T00:46:57.451Z,8.91
2023-03-26T00:49:42.658Z,8.90
2023-03-26T00:52:28.748Z,8.85
2023-03-26T00:55:13.913Z,8.87
2023-03-26T00:57:59.132Z,8.86
2023-03-26T01:01:00.339Z,8.89
2023-03-26T01:04:00.968Z,8.87
2023-03-26T01:06:50.899Z,8.90
2023-03-26T01:09:45.213Z,8.91
2023-03-26T01:12:34.655Z,8.91
2023-03-26T01:15:19.650Z,8.90
2023-03-26T01:18:05.631Z,8.93
2023-03-26T01:20:51.360Z,8.88
2023-03-26T01:24:06.724Z,8.95
2023-03-26T01:27:20.209Z,8.94
2023-03-26T01:30:33.679Z,8.93
2023-03-26T01:33:22.754Z,8.95
2023-03-26T01:36:27.317Z,8.98
2023-03-26T01:39:33.028Z,8.97
2023-03-26T01:42:52.138Z,8.99
2023-03-26T01:45:41.325Z,8.98
2023-03-26T01:48:33.550Z,8.94
2023-03-26T01:51:33.393Z,8.98
2023-03-26T01:54:23.119Z,9.04
2023-03-26T01:57:29.535Z,8.95
2023-03-26T02:00:20.922Z,8.97
2023-03-26T02:03:27.812Z,9.05
2023-03-26T02:06:23.620Z,9.07
2023-03-26T02:09:14.866Z,9.08
2023-03-26T02:12:03.560Z,9.08
2023-03-26T02:14:48.927Z,9.09
2023-03-26T02:17:34.178Z,9.04
2023-03-26T02:20:21.186Z,8.98
2023-03-26T02:23:06.713Z,8.96
2023-03-26T02:25:51.990Z,8.98
2023-03-26T02:28:38.362Z,8.95
2023-03-26T02:31:26.360Z,8.95
2023-03-26T02:34:11.894Z,8.95
2023-03-26T02:36:57.262Z,8.96
2023-03-26T02:39:42.572Z,8.88
2023-03-26T02:42:27.836Z,8.88
2023-03-26T02:45:13.104Z,8.76
2023-03-26T02:48:01.050Z,8.67
2023-03-26T02:50:50.007Z,8.74
2023-03-26T02:53:37.557Z,8.72
2023-03-26T02:56:22.684Z,8.67
2023-03-26T02:59:07.915Z,8.68
2023-03-26T03:01:53.224Z,8.58
2023-03-26T03:04:38.250Z,8.52
2023-03-26T03:07:25.188Z,8.50
2023-03-26T03:10:10.741Z,8.53
2023-03-26T03:12:56.239Z,8.49
2023-03-26T03:15:41.270Z,8.54
2023-03-26T03:18:26.582Z,8.51
2023-03-26T03:21:11.935Z,8.49
2023-03-26T03:23:59.968Z,8.45
2023-03-26T03:26:50.242Z,8.43
2023-03-26T03:29:36.034Z,8.34
2023-03-26T03:32:22.580Z,8.30
2023-03-26T03:35:08.387Z,8.26
2023-03-26T03:37:53.880Z,8.25
2023-03-26T03:40:39.138Z,8.24
2023-03-26T03:43:24.423Z,8.23
2023-03-26T03:46:09.783Z,8.20
2023-03-26T03:48:55.023Z,8.15
2023-03-26T03:51:41.025Z,8.14
2023-03-26T03:54:26.087Z,8.11
2023-03-26T03:57:11.422Z,8.04
2023-03-26T03:59:59.710Z,8.00
2023-03-26T04:02:46.162Z,7.95
2023-03-26T04:05:32.870Z,7.94
2023-03-26T04:08:18.346Z,7.93
2023-03-26T04:11:03.475Z,7.90
2023-03-26T04:13:48.569Z,7.88
2023-03-26T04:16:33.880Z,7.91
2023-03-26T04:19:19.033Z,7.95
2023-03-26T04:22:04.290Z,7.94
2023-03-26T04:24:50.159Z,7.94
2023-03-26T04:27:36.774Z,7.94
2023-03-26T04:30:23.281Z,7.92
2023-03-26T04:33:15.286Z,7.91
2023-03-26T04:36:03.057Z,7.85
2023-03-26T04:38:52.057Z,7.92
2023-03-26T04:41:37.437Z,7.88
2023-03-26T04:44:22.568Z,7.92
2023-03-26T04:47:07.722Z,7.80
2023-03-26T04:49:52.980Z,7.86
2023-03-26T04:52:38.485Z,7.82
2023-03-26T04:55:36.901Z,7.84
2023-03-26T04:58:22.187Z,7.84
2023-03-26T05:01:11.164Z,7.82
2023-03-26T05:03:58.699Z,7.88
2023-03-26T05:06:44.337Z,7.87
2023-03-26T05:09:29.454Z,7.82
2023-03-26T05:12:14.799Z,7.84
2023-03-26T05:15:00.416Z,7.85
2023-03-26T05:17:46.449Z,7.80
2023-03-26T05:20:31.917Z,7.79
2023-03-26T05:23:17.059Z,7.70
2023-03-26T05:26:02.103Z,7.73
2023-03-26T05:28:47.486Z,7.76
2023-03-26T05:31:32.751Z,7.58
2023-03-26T05:34:20.549Z,7.64
2023-03-26T05:37:06.865Z,7.69
2023-03-26T05:39:55.119Z,7.70
2023-03-26T05:42:41.348Z,7.68
2023-03-26T05:45:26.327Z,7.67
2023-03-26T05:48:11.653Z,7.66
2023-03-26T05:50:58.491Z,7.67
2023-03-26T05:53:43.862Z,7.67
2023-03-26T05:56:29.409Z,7.62
2023-03-26T05:59:15.432Z,7.64
2023-03-26T06:02:00.798Z,7.63
2023-03-26T06:04:46.030Z,7.65
2023-03-26T06:07:34.004Z,7.62
2023-03-26T06:10:19.340Z,7.57
2023-03-26T06:13:04.669Z,7.60
2023-03-26T06:15:49.976Z,7.55
2023-03-26T06:18:35.709Z,7.62
2023-03-26T06:21:20.938Z,7.60
2023-03-26T06:24:06.549Z,7.55
2023-03-26T06:26:52.300Z,7.61
2023-03-26T06:29:37.221Z,7.56
2023-03-26T06:32:22.664Z,7.58
2023-03-26T06:35:08.384Z,7.58
2023-03-26T06:37:53.538Z,7.50
2023-03-26T06:40:38.485Z,7.53
2023-03-26T06:43:23.869Z,7.51
2023-03-26T06:46:09.135Z,7.53
2023-03-26T06:48:54.228Z,7.49
2023-03-26T06:51:41.172Z,7.51
2023-03-26T06:54:27.584Z,7.50
2023-03-26T06:57:12.538Z,7.51
2023-03-26T06:59:57.389Z,7.48
2023-03-26T07:02:42.501Z,7.45
2023-03-26T07:05:27.935Z,7.47
2023-03-26T07:08:13.393Z,7.48
2023-03-26T07:10:58.668Z,7.48
2023-03-26T07:13:45.035Z,7.48
2023-03-26T07:16:30.508Z,7.38
2023-03-26T07:19:16.050Z,7.43
2023-03-26T07:22:01.485Z,7.44
2023-03-26T07:24:46.934Z,7.46
2023-03-26T07:28:17.846Z,7.48
2023-03-26T07:31:24.656Z,7.50
2023-03-26T07:34:38.488Z,7.46
2023-03-26T07:37:33.970Z,7.46
2023-03-26T07:40:22.454Z,7.45
2023-03-26T07:43:13.873Z,7.46
2023-03-26T07:45:58.996Z,7.44
2023-03-26T07:48:49.437Z,7.49
2023-03-26T07:51:35.262Z,7.49
2023-03-26T07:54:20.781Z,7.48
2023-03-26T07:57:28.882Z,7.53
2023-03-26T08:00:41.249Z,7.51
2023-03-26T08:03:32.373Z,7.54
2023-03-26T08:06:44.560Z,7.55
2023-03-26T08:09:42.454Z,7.63
2023-03-26T08:12:36.616Z,7.62
2023-03-26T08:15:33.654Z,7.56
2023-03-26T08:18:35.200Z,7.67
2023-03-26T08:21:26.242Z,7.60
2023-03-26T08:24:23.762Z,7.66
2023-03-26T08:27:43.764Z,7.73
2023-03-26T08:30:28.853Z,7.71
2023-03-26T08:33:18.158Z,7.73
2023-03-26T08:36:03.692Z,7.63
2023-03-26T08:38:50.785Z,7.77
2023-03-26T08:42:09.840Z,7.80
2023-03-26T08:45:22.829Z,7.85
2023-03-26T08:48:22.276Z,7.88
2023-03-26T08:51:27.486Z,7.90
2023-03-26T08:54:46.960Z,7.83
2023-03-26T08:57:37.932Z,7.75
2023-03-26T09:00:56.907Z,7.90
2023-03-26T09:04:01.239Z,7.89
2023-03-26T09:06:56.307Z,7.95
2023-03-26T09:10:20.801Z,7.95
2023-03-26T09:13:36.119Z,8.03
2023-03-26T09:16:36.506Z,8.09
2023-03-26T09:19:34.025Z,8.09
2023-03-26T09:22:37.939Z,8.13
2023-03-26T09:25:51.946Z,8.03
2023-03-26T09:29:20.032Z,8.10
2023-03-26T09:32:20.928Z,8.07
2023-03-26T09:35:31.119Z,8.15
2023-03-26T09:38:36.284Z,8.27
2023-03-26T09:41:40.132Z,8.23
2023-03-26T09:44:37.262Z,8.38
2023-03-26T09:48:19.775Z,8.49
2023-03-26T09:51:29.914Z,8.59
2023-03-26T09:54:18.218Z,8.66
2023-03-26T09:57:28.670Z,8.48
2023-03-26T10:00:13.599Z,8.57
2023-03-26T10:03:38.349Z,8.69
2023-03-26T10:06:32.250Z,8.78
2023-03-26T10:09:37.666Z,8.72
2023-03-26T10:13:02.203Z,8.73
2023-03-26T10:16:23.281Z,8.72
2023-03-26T10:19:23.337Z,8.72
2023-03-26T10:22:14.520Z,8.77
2023-03-26T10:25:21.072Z,8.87
2023-03-26T10:28:32.632Z,8.80
2023-03-26T10:31:36.888Z,8.86
2023-03-26T10:34:47.028Z,8.93
2023-03-26T10:37:51.578Z,8.91
2023-03-26T10:40:59.902Z,8.94
2023-03-26T10:44:08.489Z,8.75
2023-03-26T10:47:19.492Z,8.75
2023-03-26T10:50:31.504Z,8.76
2023-03-26T10:53:38.220Z,8.87
2023-03-26T10:56:35.147Z,8.91
2023-03-26T10:59:20.526Z,8.86
2023-03-26T11:02:29.254Z,8.90
2023-03-26T11:05:28.103Z,8.98
2023-03-26T11:08:37.790Z,8.95
2023-03-26T11:11:53.737Z,8.95
2023-03-26T11:14:53.995Z,8.94
2023-03-26T11:17:57.171Z,9.01
2023-03-26T11:21:19.303Z,9.06
2023-03-26T11:24:08.056Z,9.16
2023-03-26T11:27:15.489Z,9.10
2023-03-26T11:30:07.689Z,9.14
2023-03-26T11:32:57.200Z,9.14
2023-03-26T11:35:49.886Z,9.11
2023-03-26T11:38:43.604Z,9.07
2023-03-26T11:41:32.671Z,9.02
2023-03-26T11:44:28.156Z,9.08
2023-03-26T11:47:18.762Z,9.05
2023-03-26T11:50:07.141Z,9.11
2023-03-26T11:52:52.308Z,9.01
2023-03-26T11:55:41.906Z,8.86
2023-03-26T11:58:54.674Z,8.87
2023-03-26T12:01:44.455Z,8.93
2023-03-26T12:04:41.429Z,9.10
2023-03-26T12:07:34.991Z,9.25
2023-03-26T12:10:25.152Z,9.30
2023-03-26T12:13:33.597Z,9.43
2023-03-26T12:16:20.879Z,9.54
2023-03-26T12:19:22.747Z,9.76
2023-03-26T12:22:26.388Z,9.84
2023-03-26T12:25:22.346Z,9.82
2023-03-26T12:28:13.706Z,9.84
2023-03-26T12:31:02.794Z,9.90
2023-03-26T12:34:06.402Z,9.93
2023-03-26T12:36:56.703Z,9.84
2023-03-26T12:40:08.734Z,9.76
2023-03-26T12:44:48.503Z,9.81
2023-03-26T12:46:58.816Z,9.72
2023-03-26T12:49:06.427Z,9.49
2023-03-26T12:51:58.530Z,9.40
2023-03-26T12:54:53.653Z,9.24
2023-03-26T12:57:58.453Z,9.10
2023-03-26T13:01:06.892Z,9.10
2023-03-26T13:04:14.083Z,9.14
2023-03-26T13:07:10.811Z,9.03
2023-03-26T13:10:29.282Z,8.88
2023-03-26T13:13:40.874Z,8.80
2023-03-26T13:16:46.523Z,8.75
2023-03-26T13:19:59.447Z,8.79
2023-03-26T13:22:59.775Z,8.77
2023-03-26T13:25:49.045Z,8.68
2023-03-26T13:28:55.560Z,8.59
2023-03-26T13:32:18.691Z,8.54
2023-03-26T13:35:20.347Z,8.46
2023-03-26T13:38:21.906Z,8.43
2023-03-26T13:41:28.718Z,8.58
2023-03-26T13:44:32.378Z,8.69
2023-03-26T13:47:26.747Z,8.58
2023-03-26T13:50:30.891Z,8.56
2023-03-26T13:53:23.048Z,8.47
2023-03-26T13:56:11.408Z,8.48
2023-03-26T13:59:03.358Z,8.39
2023-03-26T14:01:54.715Z,8.49
2023-03-26T14:04:47.562Z,8.50
2023-03-26T14:07:42.598Z,8.41
2023-03-26T14:10:34.294Z,8.41
2023-03-26T14:13:27.243Z,8.41
2023-03-26T14:16:25.791Z,8.48
2023-03-26T14:19:36.043Z,8.35
2023-03-26T14:22:37.079Z,8.34
2023-03-26T14:25:39.644Z,8.29
2023-03-26T14:28:39.763Z,8.27
2023-03-26T14:31:53.313Z,8.26
2023-03-26T14:34:58.040Z,8.17
2023-03-26T14:37:54.261Z,8.12
2023-03-26T14:41:02.117Z,7.99
2023-03-26T14:43:47.140Z,8.06
2023-03-26T14:46:50.964Z,8.08
2023-03-26T14:49:47.313Z,8.15
2023-03-26T14:52:52.089Z,8.21
2023-03-26T14:55:48.515Z,8.27
2023-03-26T14:58:42.817Z,8.30
2023-03-26T15:01:40.208Z,8.38
2023-03-26T15:04:43.678Z,8.35
2023-03-26T15:07:56.335Z,8.32
2023-03-26T15:11:16.271Z,8.41
2023-03-26T15:14:20.160Z,8.38
2023-03-26T15:17:24.061Z,8.34
2023-03-26T15:20:36.856Z,8.45
2023-03-26T15:23:37.117Z,8.47
2023-03-26T15:26:31.499Z,8.46
2023-03-26T15:29:25.037Z,8.43
2023-03-26T15:32:40.850Z,8.45
2023-03-26T15:35:48.430Z,8.38
2023-03-26T15:38:58.652Z,8.36
2023-03-26T15:41:43.498Z,8.28
2023-03-26T15:44:53.744Z,8.34
2023-03-26T15:48:01.065Z,8.40
2023-03-26T15:50:56.263Z,8.46
2023-03-26T15:53:56.500Z,8.36
2023-03-26T15:57:00.576Z,8.32
2023-03-26T16:00:22.808Z,8.24
2023-03-26T16:03:10.933Z,8.23
2023-03-26T16:06:11.342Z,8.14
2023-03-26T16:09:22.175Z,8.03
2023-03-26T16:12:16.794Z,8.02
2023-03-26T16:15:09.500Z,8.05
2023-03-26T16:18:10.420Z,8.04
2023-03-26T16:21:08.944Z,8.01
2023-03-26T16:24:24.651Z,8.06
2023-03-26T16:27:12.663Z,8.00
2023-03-26T16:30:03.267Z,8.00
2023-03-26T16:32:56.187Z,7.97
2023-03-26T16:36:03.177Z,7.90
2023-03-26T16:39:08.913Z,7.94
2023-03-26T16:42:06.490Z,7.94
2023-03-26T16:45:06.485Z,7.90
2023-03-26T16:48:06.827Z,7.79
2023-03-26T16:51:03.798Z,7.80
2023-03-26T16:53:53.710Z,7.77
2023-03-26T16:56:54.188Z,7.81
2023-03-26T17:00:04.626Z,7.76
2023-03-26T17:03:17.607Z,7.78
2023-03-26T17:06:06.000Z,7.77
2023-03-26T17:08:57.378Z,7.74
2023-03-26T17:12:09.266Z,7.63
2023-03-26T17:15:06.410Z,7.59
2023-03-26T17:18:21.021Z,7.60
2023-03-26T17:21:16.216Z,7.60
2023-03-26T17:24:15.698Z,7.55
2023-03-26T17:27:08.443Z,7.54
2023-03-26T17:30:07.467Z,7.53
2023-03-26T17:33:06.405Z,7.54
2023-03-26T17:36:11.911Z,7.51
2023-03-26T17:39:04.966Z,7.46
2023-03-26T17:41:55.336Z,7.31
2023-03-26T17:44:43.729Z,7.30
2023-03-26T17:47:32.771Z,7.26
2023-03-26T17:50:24.249Z,7.20
2023-03-26T17:53:22.221Z,7.16
2023-03-26T17:56:16.821Z,7.11
2023-03-26T17:59:11.843Z,7.14
2023-03-26T18:02:00.947Z,7.14
2023-03-26T18:04:49.956Z,7.16
2023-03-26T18:08:10.603Z,7.15
2023-03-26T18:10:58.450Z,7.08
2023-03-26T18:13:52.542Z,7.09
2023-03-26T18:16:43.884Z,7.11
2023-03-26T18:19:29.671Z,7.07
2023-03-26T18:22:22.869Z,7.07
2023-03-26T18:25:33.686Z,7.03
2023-03-26T18:28:19.010Z,7.01
2023-03-26T18:31:19.805Z,7.01
2023-03-26T18:34:13.833Z,6.99
2023-03-26T18:37:08.532Z,6.99
2023-03-26T18:40:12.716Z,6.97
2023-03-26T18:42:59.724Z,7.01
2023-03-26T18:45:47.488Z,6.94
2023-03-26T18:48:33.051Z,7.02
2023-03-26T18:51:23.068Z,7.01
2023-03-26T18:54:17.241Z,6.97
2023-03-26T18:57:14.813Z,6.99
2023-03-26T19:00:18.412Z,6.99
2023-03-26T19:03:07.026Z,7.02
2023-03-26T19:05:57.278Z,6.96
2023-03-26T19:08:44.951Z,6.91
2023-03-26T19:11:30.565Z,6.91
2023-03-26T19:14:18.602Z,6.92
2023-03-26T19:17:06.021Z,6.90
2023-03-26T19:19:51.472Z,6.89
2023-03-26T19:22:36.905Z,6.79
2023-03-26T19:25:44.405Z,6.87
2023-03-26T19:28:59.139Z,6.88
2023-03-26T19:31:44.188Z,6.79
2023-03-26T19:34:38.531Z,6.82
2023-03-26T19:37:26.503Z,6.83
2023-03-26T19:40:22.406Z,6.82
2023-03-26T19:43:12.231Z,6.76
2023-03-26T19:45:59.262Z,6.72
2023-03-26T19:48:49.060Z,6.69
2023-03-26T19:51:36.441Z,6.63
2023-03-26T19:54:21.713Z,6.66
2023-03-26T19:57:09.482Z,6.67
2023-03-26T19:59:55.534Z,6.63
2023-03-26T20:02:42.351Z,6.59
2023-03-26T20:05:32.471Z,6.60
2023-03-26T20:08:19.557Z,6.46
2023-03-26T20:11:04.642Z,6.48
2023-03-26T20:13:50.928Z,6.43
2023-03-26T20:16:37.009Z,6.40
2023-03-26T20:19:23.036Z,6.41
2023-03-26T20:22:13.041Z,6.40
2023-03-26T20:24:58.105Z,6.39
2023-03-26T20:27:43.384Z,6.29
2023-03-26T20:30:37.257Z,6.34
2023-03-26T20:33:25.550Z,6.31
2023-03-26T20:36:34.194Z,6.27
2023-03-26T20:39:22.377Z,6.27
2023-03-26T20:42:09.740Z,6.20
2023-03-26T20:44:54.982Z,6.18
2023-03-26T20:47:40.610Z,6.11
2023-03-26T20:50:26.794Z,6.03
2023-03-26T20:53:16.598Z,6.00
2023-03-26T20:56:02.117Z,5.92
2023-03-26T20:59:09.896Z,5.93
2023-03-26T21:01:57.829Z,5.89
2023-03-26T21:04:43.838Z,5.88
2023-03-26T21:07:28.725Z,5.85
2023-03-26T21:10:14.836Z,5.83
2023-03-26T21:13:05.966Z,5.77
2023-03-26T21:15:51.397Z,5.64
2023-03-26T21:18:37.299Z,5.60
2023-03-26T21:21:39.107Z,5.70
2023-03-26T21:24:29.621Z,5.69
2023-03-26T21:27:43.408Z,5.63
2023-03-26T21:30:28.548Z,5.56
2023-03-26T21:33:13.884Z,5.59
2023-03-26T21:36:04.489Z,5.56
2023-03-26T21:38:50.552Z,5.51
2023-03-26T21:41:45.395Z,5.45
2023-03-26T21:44:31.054Z,5.47
2023-03-26T21:47:16.308Z,5.50
2023-03-26T21:50:02.611Z,5.52
2023-03-26T21:52:50.947Z,5.51
2023-03-26T21:56:14.725Z,5.54
2023-03-26T21:59:26.096Z,5.52
2023-03-26T22:02:43.503Z,5.51
2023-03-26T22:05:41.109Z,5.44
2023-03-26T22:08:33.083Z,5.44
2023-03-26T22:11:18.395Z,5.45
2023-03-26T22:14:04.969Z,5.50
2023-03-26T22:16:50.188Z,5.48
2023-03-26T22:19:35.886Z,5.48
2023-03-26T22:22:22.129Z,5.50
2023-03-26T22:25:10.409Z,5.50
2023-03-26T22:27:57.327Z,5.47
2023-03-26T22:30:42.507Z,5.39
2023-03-26T22:33:27.380Z,5.40
2023-03-26T22:36:22.858Z,5.49
2023-03-26T22:39:08.818Z,5.50
2023-03-26T22:41:54.430Z,5.49
2023-03-26T22:44:39.792Z,5.40
2023-03-26T22:47:25.125Z,5.48
2023-03-26T22:50:10.832Z,5.48
2023-03-26T22:52:56.305Z,5.49
2023-03-26T22:55:42.273Z,5.49
2023-03-26T22:58:28.245Z,5.45
2023-03-26T23:01:21.258Z,5.46
2023-03-26T23:04:07.063Z,5.47
2023-03-26T23:06:56.354Z,5.48
2023-03-26T23:09:41.644Z,5.45
2023-03-26T23:12:26.676Z,5.48
2023-03-26T23:15:11.927Z,5.48
2023-03-26T23:17:57.689Z,5.48
2023-03-26T23:20:52.916Z,5.51
2023-03-26T23:23:38.951Z,5.51
2023-03-26T23:26:24.591Z,5.52
2023-03-26T23:29:09.833Z,5.52
2023-03-26T23:31:56.065Z,5.41
2023-03-26T23:34:51.718Z,5.44
2023-03-26T23:37:38.076Z,5.49
2023-03-26T23:40:23.400Z,5.43
2023-03-26T23:43:08.788Z,5.42
2023-03-26T23:45:54.783Z,5.43
2023-03-26T23:48:43.365Z,5.50
2023-03-26T23:51:30.307Z,5.48
2023-03-26T23:54:15.261Z,5.49
2023-03-26T23:57:00.857Z,5.48
2023-03-26T23:59:45.873Z,5.47
